sensor_id;sensor_type;location;lat;lon;timestamp;pressure;altitude;pressure_sealevel;temperature;humidity
74982;BME280;63532;50.766;18.944;2024-02-26T06:32:58;97730.66;;;-0.55;79.99
74982;BME280;63532;50.766;18.944;2024-02-26T06:36:05;97720.22;;;-0.46;79.96
74982;BME280;63532;50.766;18.944;2024-02-26T06:39:10;97726.31;;;-0.34;80.07
74982;BME280;63532;50.766;18.944;2024-02-26T06:42:15;97726.03;;;-0.20;80.10
74982;BME280;63532;50.766;18.944;2024-02-26T06:45:20;97726.84;;;-0.08;80.22
74982;BME280;63532;50.766;18.944;2024-02-26T06:48:26;97727.63;;;0.04;79.71
74982;BME280;63532;50.766;18.944;2024-02-26T06:51:30;97732.94;;;0.24;79.62
74982;BME280;63532;50.766;18.944;2024-02-26T06:54:35;97734.09;;;0.43;79.61
74982;BME280;63532;50.766;18.944;2024-02-26T06:57:40;97730.53;;;0.53;79.37
74982;BME280;63532;50.766;18.944;2024-02-26T07:00:44;97730.94;;;0.69;79.38
74982;BME280;63532;50.766;18.944;2024-02-26T07:03:50;97744.38;;;0.87;79.28
74982;BME280;63532;50.766;18.944;2024-02-26T07:06:55;97737.69;;;1.04;79.19
74982;BME280;63532;50.766;18.944;2024-02-26T07:10:00;97738.09;;;1.30;79.21
74982;BME280;63532;50.766;18.944;2024-02-26T07:13:06;97738.06;;;1.60;79.10
74982;BME280;63532;50.766;18.944;2024-02-26T07:16:10;97738.16;;;1.89;79.31
74982;BME280;63532;50.766;18.944;2024-02-26T07:19:17;97742.63;;;2.18;78.86
74982;BME280;63532;50.766;18.944;2024-02-26T07:22:21;97739.72;;;2.40;78.84
74982;BME280;63532;50.766;18.944;2024-02-26T07:25:27;97732.19;;;2.64;78.87
74982;BME280;63532;50.766;18.944;2024-02-26T07:28:31;97736.75;;;3.01;78.35
74982;BME280;63532;50.766;18.944;2024-02-26T07:31:36;97737.47;;;3.30;78.81
74982;BME280;63532;50.766;18.944;2024-02-26T07:34:42;97736.94;;;3.64;78.20
74982;BME280;63532;50.766;18.944;2024-02-26T07:37:48;97723.13;;;4.05;77.74
74982;BME280;63532;50.766;18.944;2024-02-26T07:40:53;97722.69;;;4.45;78.15
74982;BME280;63532;50.766;18.944;2024-02-26T07:44:05;97711.25;;;4.89;78.07
74982;BME280;63532;50.766;18.944;2024-02-26T07:47:11;97717.56;;;5.39;77.70
74982;BME280;63532;50.766;18.944;2024-02-26T07:50:17;97712.31;;;5.90;77.17
74982;BME280;63532;50.766;18.944;2024-02-26T07:53:22;97714.41;;;6.36;76.92
74982;BME280;63532;50.766;18.944;2024-02-26T07:56:27;97718.28;;;6.74;76.42
74982;BME280;63532;50.766;18.944;2024-02-26T07:59:31;97717.25;;;7.16;75.95
74982;BME280;63532;50.766;18.944;2024-02-26T08:02:36;97718.34;;;7.46;76.12
74982;BME280;63532;50.766;18.944;2024-02-26T08:05:42;97714.09;;;7.68;75.55
74982;BME280;63532;50.766;18.944;2024-02-26T08:08:47;97712.84;;;7.95;75.59
74982;BME280;63532;50.766;18.944;2024-02-26T08:11:52;97716.56;;;8.16;75.04
74982;BME280;63532;50.766;18.944;2024-02-26T08:14:56;97718.22;;;8.17;75.31
74982;BME280;63532;50.766;18.944;2024-02-26T08:18:01;97711.91;;;8.10;74.96
74982;BME280;63532;50.766;18.944;2024-02-26T08:21:08;97720.34;;;7.99;75.06
74982;BME280;63532;50.766;18.944;2024-02-26T08:24:12;97722.69;;;7.94;75.35
74982;BME280;63532;50.766;18.944;2024-02-26T08:27:17;97729.72;;;7.95;75.49
74982;BME280;63532;50.766;18.944;2024-02-26T08:30:25;97727.97;;;8.10;75.60
74982;BME280;63532;50.766;18.944;2024-02-26T08:33:30;97727.16;;;8.41;75.77
74982;BME280;63532;50.766;18.944;2024-02-26T08:36:38;97730.78;;;8.71;74.86
74982;BME280;63532;50.766;18.944;2024-02-26T08:39:43;97727.06;;;8.94;75.00
74982;BME280;63532;50.766;18.944;2024-02-26T08:42:48;97731.22;;;9.20;74.65
74982;BME280;63532;50.766;18.944;2024-02-26T08:45:53;97736.41;;;9.36;74.19
74982;BME280;63532;50.766;18.944;2024-02-26T08:48:57;97726.63;;;9.43;74.34
74982;BME280;63532;50.766;18.944;2024-02-26T08:52:05;97722.94;;;9.44;74.19
74982;BME280;63532;50.766;18.944;2024-02-26T08:55:10;97726.72;;;9.50;74.41
74982;BME280;63532;50.766;18.944;2024-02-26T08:58:16;97723.94;;;9.58;74.66
74982;BME280;63532;50.766;18.944;2024-02-26T09:01:20;97728.84;;;9.84;73.94
74982;BME280;63532;50.766;18.944;2024-02-26T09:04:26;97720.78;;;10.13;73.74
74982;BME280;63532;50.766;18.944;2024-02-26T09:07:32;97721.75;;;10.42;73.15
74982;BME280;63532;50.766;18.944;2024-02-26T09:10:38;97719.41;;;10.53;72.92
74982;BME280;63532;50.766;18.944;2024-02-26T09:13:43;97720.38;;;10.67;72.77
74982;BME280;63532;50.766;18.944;2024-02-26T09:16:47;97717.03;;;10.86;72.80
74982;BME280;63532;50.766;18.944;2024-02-26T09:19:52;97714.09;;;11.03;72.13
74982;BME280;63532;50.766;18.944;2024-02-26T09:22:58;97715.31;;;11.28;71.91
74982;BME280;63532;50.766;18.944;2024-02-26T09:29:59;97718.13;;;11.76;71.94
74982;BME280;63532;50.766;18.944;2024-02-26T09:33:04;97694.88;;;11.89;71.47
74982;BME280;63532;50.766;18.944;2024-02-26T09:36:09;97706.47;;;11.96;72.11
74982;BME280;63532;50.766;18.944;2024-02-26T09:39:15;97704.06;;;12.08;71.65
74982;BME280;63532;50.766;18.944;2024-02-26T09:42:25;97714.28;;;12.32;71.33
74982;BME280;63532;50.766;18.944;2024-02-26T09:45:32;97705.63;;;12.57;70.77
74982;BME280;63532;50.766;18.944;2024-02-26T09:48:39;97702.78;;;12.78;70.44
74982;BME280;63532;50.766;18.944;2024-02-26T09:51:47;97705.06;;;12.81;70.13
74982;BME280;63532;50.766;18.944;2024-02-26T09:54:55;97700.53;;;12.95;70.36
74982;BME280;63532;50.766;18.944;2024-02-26T09:57:59;97704.28;;;13.14;69.96
74982;BME280;63532;50.766;18.944;2024-02-26T10:01:11;97703.47;;;13.33;69.65
74982;BME280;63532;50.766;18.944;2024-02-26T10:04:20;97696.41;;;13.45;69.09
74982;BME280;63532;50.766;18.944;2024-02-26T10:07:28;97702.81;;;13.44;69.30
74982;BME280;63532;50.766;18.944;2024-02-26T10:10:36;97697.22;;;13.59;69.48
74982;BME280;63532;50.766;18.944;2024-02-26T10:13:41;97709.22;;;13.76;69.13
74982;BME280;63532;50.766;18.944;2024-02-26T10:16:46;97710.00;;;13.90;69.01
74982;BME280;63532;50.766;18.944;2024-02-26T10:19:50;97702.94;;;14.02;68.17
74982;BME280;63532;50.766;18.944;2024-02-26T10:23:02;97712.06;;;14.01;68.52
74982;BME280;63532;50.766;18.944;2024-02-26T10:26:10;97697.72;;;14.07;67.00
74982;BME280;63532;50.766;18.944;2024-02-26T10:29:16;97692.56;;;13.86;67.76
74982;BME280;63532;50.766;18.944;2024-02-26T10:32:21;97696.34;;;13.85;68.13
74982;BME280;63532;50.766;18.944;2024-02-26T10:35:25;97693.66;;;13.71;68.37
74982;BME280;63532;50.766;18.944;2024-02-26T10:38:32;97697.22;;;13.59;68.80
74982;BME280;63532;50.766;18.944;2024-02-26T10:41:39;97694.50;;;13.65;69.40
74982;BME280;63532;50.766;18.944;2024-02-26T10:44:45;97692.16;;;13.89;68.77
74982;BME280;63532;50.766;18.944;2024-02-26T10:47:51;97694.00;;;13.95;68.65
74982;BME280;63532;50.766;18.944;2024-02-26T10:50:56;97686.31;;;13.98;68.71
74982;BME280;63532;50.766;18.944;2024-02-26T10:54:02;97682.63;;;14.31;68.00
74982;BME280;63532;50.766;18.944;2024-02-26T10:57:15;97675.81;;;14.28;68.15
74982;BME280;63532;50.766;18.944;2024-02-26T11:00:22;97677.00;;;14.32;67.38
74982;BME280;63532;50.766;18.944;2024-02-26T11:03:28;97671.81;;;14.37;67.84
74982;BME280;63532;50.766;18.944;2024-02-26T11:06:38;97666.19;;;14.46;68.00
74982;BME280;63532;50.766;18.944;2024-02-26T11:09:45;97662.47;;;14.33;67.69
74982;BME280;63532;50.766;18.944;2024-02-26T11:12:59;97655.19;;;14.40;67.75
74982;BME280;63532;50.766;18.944;2024-02-26T11:16:05;97671.00;;;14.30;68.05
74982;BME280;63532;50.766;18.944;2024-02-26T11:19:11;97670.88;;;14.19;68.05
74982;BME280;63532;50.766;18.944;2024-02-26T11:22:17;97656.53;;;14.18;68.44
74982;BME280;63532;50.766;18.944;2024-02-26T11:25:25;97669.66;;;14.08;68.37
74982;BME280;63532;50.766;18.944;2024-02-26T11:28:32;97662.22;;;13.97;68.18
74982;BME280;63532;50.766;18.944;2024-02-26T11:31:39;97667.41;;;14.05;67.80
74982;BME280;63532;50.766;18.944;2024-02-26T11:34:45;97652.66;;;14.01;67.68
74982;BME280;63532;50.766;18.944;2024-02-26T11:37:53;97654.13;;;13.97;67.71
74982;BME280;63532;50.766;18.944;2024-02-26T11:40:59;97665.13;;;14.02;67.94
74982;BME280;63532;50.766;18.944;2024-02-26T11:44:05;97663.69;;;13.99;67.73
74982;BME280;63532;50.766;18.944;2024-02-26T11:47:11;97654.56;;;13.94;68.00
74982;BME280;63532;50.766;18.944;2024-02-26T11:50:34;97655.19;;;13.89;67.55
74982;BME280;63532;50.766;18.944;2024-02-26T11:53:46;97655.19;;;13.96;67.85
74982;BME280;63532;50.766;18.944;2024-02-26T11:56:51;97663.88;;;14.04;67.15
74982;BME280;63532;50.766;18.944;2024-02-26T12:00:11;97664.69;;;14.05;67.54
74982;BME280;63532;50.766;18.944;2024-02-26T12:03:17;97652.66;;;14.01;67.78
74982;BME280;63532;50.766;18.944;2024-02-26T12:06:24;97656.84;;;13.97;67.96
74982;BME280;63532;50.766;18.944;2024-02-26T12:09:34;97655.19;;;13.96;67.76
74982;BME280;63532;50.766;18.944;2024-02-26T12:12:41;97661.41;;;13.96;68.21
74982;BME280;63532;50.766;18.944;2024-02-26T12:15:55;97642.72;;;13.95;67.48
74982;BME280;63532;50.766;18.944;2024-02-26T12:19:04;97654.56;;;13.94;68.22
74982;BME280;63532;50.766;18.944;2024-02-26T12:22:13;97643.94;;;13.99;68.07
74982;BME280;63532;50.766;18.944;2024-02-26T12:25:23;97643.72;;;14.07;67.95
74982;BME280;63532;50.766;18.944;2024-02-26T12:28:28;97644.31;;;14.09;68.34
74982;BME280;63532;50.766;18.944;2024-02-26T12:31:35;97643.66;;;14.14;67.81
74982;BME280;63532;50.766;18.944;2024-02-26T12:34:41;97643.06;;;14.12;67.69
74982;BME280;63532;50.766;18.944;2024-02-26T12:37:46;97655.56;;;14.06;67.92
74982;BME280;63532;50.766;18.944;2024-02-26T12:40:50;97654.34;;;13.95;67.58
74982;BME280;63532;50.766;18.944;2024-02-26T12:43:55;97657.47;;;13.92;68.07
74982;BME280;63532;50.766;18.944;2024-02-26T12:47:03;97650.63;;;13.90;67.75
74982;BME280;63532;50.766;18.944;2024-02-26T12:50:10;97649.38;;;13.86;67.54
74982;BME280;63532;50.766;18.944;2024-02-26T12:53:15;97647.91;;;13.90;67.57
74982;BME280;63532;50.766;18.944;2024-02-26T12:56:21;97652.25;;;13.97;68.04
74982;BME280;63532;50.766;18.944;2024-02-26T12:59:27;97640.94;;;14.20;67.27
74982;BME280;63532;50.766;18.944;2024-02-26T13:02:34;97647.09;;;14.40;67.04
74982;BME280;63532;50.766;18.944;2024-02-26T13:05:39;97645.00;;;14.43;66.78
74982;BME280;63532;50.766;18.944;2024-02-26T13:08:45;97651.47;;;14.42;67.03
74982;BME280;63532;50.766;18.944;2024-02-26T13:11:53;97647.16;;;14.27;66.61
74982;BME280;63532;50.766;18.944;2024-02-26T13:14:59;97657.59;;;14.11;67.07
74982;BME280;63532;50.766;18.944;2024-02-26T13:18:11;97662.84;;;13.99;66.73
74982;BME280;63532;50.766;18.944;2024-02-26T13:21:18;97647.50;;;13.93;66.87
74982;BME280;63532;50.766;18.944;2024-02-26T13:24:25;97655.38;;;14.01;67.07
74982;BME280;63532;50.766;18.944;2024-02-26T13:27:30;97653.03;;;14.11;66.77
74982;BME280;63532;50.766;18.944;2024-02-26T13:30:34;97662.63;;;14.07;66.34
74982;BME280;63532;50.766;18.944;2024-02-26T13:33:41;97655.59;;;13.93;66.67
74982;BME280;63532;50.766;18.944;2024-02-26T13:36:50;97666.03;;;13.83;67.10
74982;BME280;63532;50.766;18.944;2024-02-26T13:39:55;97663.13;;;13.78;67.06
74982;BME280;63532;50.766;18.944;2024-02-26T13:42:59;97659.00;;;13.68;66.87
74982;BME280;63532;50.766;18.944;2024-02-26T13:46:04;97659.88;;;13.62;67.30
74982;BME280;63532;50.766;18.944;2024-02-26T13:49:10;97657.16;;;13.56;67.20
74982;BME280;63532;50.766;18.944;2024-02-26T13:52:15;97654.47;;;13.49;67.00
